Time;durP1;ratioP1;P1;durP2;ratioP2;P2;SDS_P1;SDS_P2;PMS_P1;PMS_P2;Temp;Humidity;BMP_temperature;BMP_pressure;BME280_temperature;BME280_humidity;BME280_pressure;Samples;Min_cycle;Max_cycle;Signal;HPM_P1;HPM_P2
2023/05/12 00:01:21;;;;;;;3.83;3.33;;;19.10;92.60;;;;;;4987080;28;20695;-71
2023/05/12 00:03:48;;;;;;;3.97;3.47;;;19.00;92.50;;;;;;4987187;28;20206;-71
2023/05/12 00:06:17;;;;;;;4.07;3.67;;;19.00;92.60;;;;;;4987358;28;20210;-71
2023/05/12 00:08:43;;;;;;;5.67;3.73;;;19.00;92.70;;;;;;4977287;28;20227;-71
2023/05/12 00:11:11;;;;;;;4.00;3.60;;;18.90;92.70;;;;;;4984603;28;20245;-71
2023/05/12 00:13:37;;;;;;;3.57;3.27;;;18.90;92.50;;;;;;4987247;28;20214;-71
2023/05/12 00:16:05;;;;;;;6.43;3.47;;;18.90;92.60;;;;;;4987347;28;20301;-71
2023/05/12 00:18:32;;;;;;;3.87;3.40;;;18.90;92.60;;;;;;4979180;28;20309;-71
2023/05/12 00:20:59;;;;;;;3.97;3.60;;;18.80;92.70;;;;;;4980504;28;21047;-71
2023/05/12 00:23:27;;;;;;;6.70;3.67;;;18.90;92.60;;;;;;4986980;28;20340;-71
2023/05/12 00:25:54;;;;;;;5.43;3.50;;;18.80;92.50;;;;;;4987546;28;20309;-71
2023/05/12 00:28:21;;;;;;;5.33;3.33;;;18.80;92.50;;;;;;4987009;28;20329;-71
2023/05/12 00:30:48;;;;;;;4.13;3.67;;;18.80;92.60;;;;;;4986658;28;20665;-69
2023/05/12 00:33:15;;;;;;;5.13;3.60;;;18.80;92.80;;;;;;4985603;28;20242;-68
2023/05/12 00:35:44;;;;;;;3.70;3.27;;;18.80;92.70;;;;;;4986807;28;20208;-69
2023/05/12 00:38:11;;;;;;;5.67;3.43;;;18.70;92.90;;;;;;4986457;28;20756;-69
2023/05/12 00:40:40;;;;;;;3.80;3.50;;;18.70;92.70;;;;;;4986726;28;20309;-68
2023/05/12 00:43:07;;;;;;;7.90;3.30;;;18.60;92.70;;;;;;4986453;28;20202;-71
2023/05/12 00:45:34;;;;;;;3.43;3.23;;;18.60;92.50;;;;;;4986263;28;20241;-71
2023/05/12 00:48:01;;;;;;;7.37;3.50;;;18.60;92.60;;;;;;4986080;28;20333;-71
2023/05/12 00:50:28;;;;;;;4.73;3.50;;;18.60;92.50;;;;;;4986623;28;20296;-73
2023/05/12 00:52:55;;;;;;;4.00;3.47;;;18.60;92.70;;;;;;4983202;28;20346;-68
2023/05/12 00:55:22;;;;;;;3.73;3.33;;;18.60;92.60;;;;;;4966922;28;20247;-71
2023/05/12 00:57:50;;;;;;;5.00;3.33;;;18.60;92.80;;;;;;4966699;28;20305;-69
2023/05/12 01:00:17;;;;;;;6.60;3.03;;;18.60;92.80;;;;;;4967155;28;20769;-69
2023/05/12 01:02:45;;;;;;;6.20;3.50;;;18.60;92.80;;;;;;4977431;28;20576;-69
2023/05/12 01:05:12;;;;;;;5.93;3.40;;;18.60;92.90;;;;;;4985235;28;20216;-69
2023/05/12 01:07:40;;;;;;;4.37;3.43;;;18.60;92.80;;;;;;4986522;28;20301;-70
2023/05/12 01:10:17;;;;;;;7.00;3.57;;;18.50;92.70;;;;;;4986443;28;20636;-70
2023/05/12 01:12:44;;;;;;;3.40;3.20;;;18.40;92.80;;;;;;4986248;28;20621;-70
2023/05/12 01:15:13;;;;;;;5.67;3.40;;;18.40;92.70;;;;;;4986106;28;20218;-70
2023/05/12 01:17:45;;;;;;;3.30;2.93;;;18.40;92.80;;;;;;4985759;28;20559;-70
2023/05/12 01:20:14;;;;;;;5.83;3.87;;;18.30;92.90;;;;;;4985914;28;20209;-70
2023/05/12 01:22:42;;;;;;;5.37;4.23;;;18.20;93.10;;;;;;4985314;28;20253;-70
2023/05/12 01:25:12;;;;;;;4.83;3.50;;;18.20;93.30;;;;;;4985959;28;20627;-70
2023/05/12 01:27:41;;;;;;;3.53;3.20;;;18.10;93.40;;;;;;4986169;28;20198;-69
2023/05/12 01:30:10;;;;;;;5.00;3.70;;;18.10;93.20;;;;;;4985459;28;21015;-70
2023/05/12 01:32:39;;;;;;;4.97;3.80;;;18.00;93.40;;;;;;4985774;28;20377;-70
2023/05/12 01:35:06;;;;;;;9.07;3.67;;;18.00;93.20;;;;;;4985865;28;20210;-70
2023/05/12 01:37:33;;;;;;;4.10;3.70;;;17.90;93.40;;;;;;4986068;28;20245;-70
2023/05/12 01:40:00;;;;;;;4.83;3.23;;;17.90;93.60;;;;;;4985694;28;20692;-70
2023/05/12 01:42:27;;;;;;;3.47;3.17;;;17.80;93.50;;;;;;4985361;28;20289;-70
2023/05/12 01:44:55;;;;;;;6.70;3.90;;;17.80;93.70;;;;;;4985588;28;20712;-70
2023/05/12 01:47:22;;;;;;;6.53;3.60;;;17.80;93.70;;;;;;4986065;28;20210;-69
2023/05/12 01:49:49;;;;;;;6.73;3.73;;;17.80;93.60;;;;;;4985818;28;20238;-70
2023/05/12 01:52:16;;;;;;;5.30;3.63;;;17.80;93.70;;;;;;4984604;28;20212;-70
2023/05/12 01:54:43;;;;;;;4.03;3.63;;;17.70;93.80;;;;;;4985517;28;20220;-70
2023/05/12 01:57:10;;;;;;;3.70;3.40;;;17.70;93.90;;;;;;4985945;28;20309;-70
2023/05/12 01:59:37;;;;;;;8.97;4.00;;;17.70;94.00;;;;;;4985827;28;20268;-71
2023/05/12 02:02:05;;;;;;;4.07;3.60;;;17.70;94.10;;;;;;4981859;28;20206;-69
2023/05/12 02:04:33;;;;;;;4.20;3.30;;;17.60;94.20;;;;;;4979174;28;20300;-73
2023/05/12 02:07:00;;;;;;;5.37;3.47;;;17.60;94.10;;;;;;4985816;28;20237;-70
2023/05/12 02:09:27;;;;;;;6.83;3.33;;;17.40;94.20;;;;;;4966899;28;20238;-70
2023/05/12 02:11:54;;;;;;;3.97;3.53;;;17.40;94.40;;;;;;4965907;28;20242;-70
2023/05/12 02:14:21;;;;;;;3.97;3.43;;;17.50;94.50;;;;;;4977914;28;20289;-70
2023/05/12 02:16:51;;;;;;;5.60;3.67;;;17.50;94.50;;;;;;4983857;28;20205;-70
2023/05/12 02:19:20;;;;;;;7.03;3.43;;;17.50;94.30;;;;;;4988466;28;20207;-70
2023/05/12 02:21:46;;;;;;;3.90;3.50;;;17.50;94.20;;;;;;4988887;28;20736;-70
2023/05/12 02:24:15;;;;;;;3.87;3.47;;;17.50;94.10;;;;;;4988415;28;20300;-70
2023/05/12 02:26:43;;;;;;;5.00;4.00;;;17.50;94.10;;;;;;4988849;28;20658;-69
2023/05/12 02:29:10;;;;;;;7.30;3.80;;;17.50;94.40;;;;;;4988660;28;20242;-70
2023/05/12 02:31:37;;;;;;;3.97;3.57;;;17.50;94.30;;;;;;4972759;28;20207;-69
2023/05/12 02:34:04;;;;;;;7.50;3.50;;;17.50;94.40;;;;;;4967750;28;20210;-69
2023/05/12 02:36:33;;;;;;;5.73;4.03;;;17.50;94.50;;;;;;4975963;28;20237;-69
2023/05/12 02:39:00;;;;;;;6.60;3.73;;;17.50;94.50;;;;;;4977376;28;20238;-69
2023/05/12 02:41:27;;;;;;;3.63;3.10;;;17.40;94.50;;;;;;4987321;28;20222;-69
2023/05/12 02:43:53;;;;;;;4.17;3.50;;;17.40;94.80;;;;;;4987460;28;20638;-69
2023/05/12 02:46:20;;;;;;;3.80;3.50;;;17.40;94.50;;;;;;4987094;28;20238;-69
2023/05/12 02:48:47;;;;;;;6.83;3.83;;;17.30;94.50;;;;;;4986584;28;20237;-69
2023/05/12 02:51:14;;;;;;;4.70;3.63;;;17.30;94.50;;;;;;4985697;28;20206;-69
2023/05/12 02:53:42;;;;;;;7.60;3.80;;;17.30;94.60;;;;;;4986574;28;20210;-69
2023/05/12 02:56:09;;;;;;;4.23;3.77;;;17.30;94.60;;;;;;4986216;28;20278;-69
2023/05/12 02:58:36;;;;;;;3.93;3.57;;;17.30;95.10;;;;;;4986193;28;20241;-69
2023/05/12 03:01:03;;;;;;;5.47;3.67;;;17.30;94.70;;;;;;4986739;28;20214;-69
2023/05/12 03:03:30;;;;;;;4.97;3.60;;;17.10;94.70;;;;;;4986090;28;20206;-69
2023/05/12 03:05:57;;;;;;;7.73;3.93;;;17.10;94.90;;;;;;4986055;28;20268;-69
2023/05/12 03:08:24;;;;;;;8.60;3.83;;;17.10;94.90;;;;;;4979910;28;20233;-72
2023/05/12 03:10:52;;;;;;;4.10;3.70;;;16.90;95.00;;;;;;4973689;28;20345;-70
2023/05/12 03:13:19;;;;;;;4.70;3.40;;;16.90;95.00;;;;;;4974716;28;20300;-70
2023/05/12 03:15:46;;;;;;;5.40;4.17;;;16.90;95.10;;;;;;4986236;28;20216;-70
2023/05/12 03:18:13;;;;;;;5.83;3.37;;;16.80;95.10;;;;;;4986471;28;20276;-70
2023/05/12 03:20:40;;;;;;;5.20;3.73;;;16.80;95.00;;;;;;4986885;28;20901;-69
2023/05/12 03:23:06;;;;;;;7.27;3.80;;;16.70;95.20;;;;;;4986915;28;20209;-70
2023/05/12 03:25:34;;;;;;;6.40;3.47;;;16.70;95.20;;;;;;4986249;28;20214;-70
2023/05/12 03:28:03;;;;;;;5.83;3.63;;;16.70;95.20;;;;;;4985433;28;20209;-69
2023/05/12 03:30:31;;;;;;;4.10;3.40;;;16.60;95.40;;;;;;4987824;28;20234;-70
2023/05/12 03:32:58;;;;;;;6.40;3.60;;;16.50;95.50;;;;;;4987449;28;20222;-70
2023/05/12 03:35:25;;;;;;;6.23;3.80;;;16.40;95.60;;;;;;4984779;28;20267;-71
2023/05/12 03:37:52;;;;;;;7.17;3.67;;;16.50;95.70;;;;;;4987746;28;20302;-70
2023/05/12 03:40:19;;;;;;;6.70;3.60;;;16.50;95.80;;;;;;4987134;28;20260;-70
2023/05/12 03:42:46;;;;;;;3.67;3.37;;;16.40;95.60;;;;;;4987490;28;20242;-70
2023/05/12 03:45:14;;;;;;;5.50;3.83;;;16.50;95.60;;;;;;4987253;28;20293;-70
2023/05/12 03:47:41;;;;;;;5.47;3.70;;;16.40;95.60;;;;;;4987032;28;20830;-70
2023/05/12 03:50:09;;;;;;;6.80;3.90;;;16.30;95.70;;;;;;4987372;28;20714;-70
2023/05/12 03:52:37;;;;;;;4.00;3.60;;;16.30;95.80;;;;;;4987545;28;20237;-69
2023/05/12 03:55:05;;;;;;;4.73;3.70;;;16.30;95.90;;;;;;4987207;28;20838;-70
2023/05/12 03:57:33;;;;;;;7.73;4.20;;;16.30;96.00;;;;;;4987609;28;20195;-70
2023/05/12 04:00:00;;;;;;;9.00;4.53;;;16.30;96.00;;;;;;4987481;28;20210;-70
2023/05/12 04:02:28;;;;;;;4.97;4.00;;;16.30;96.00;;;;;;4987352;28;20221;-71
2023/05/12 04:04:55;;;;;;;4.33;3.80;;;16.20;96.10;;;;;;4987457;28;20206;-70
2023/05/12 04:07:22;;;;;;;4.07;3.77;;;16.20;96.30;;;;;;4987303;28;20217;-69
2023/05/12 04:09:49;;;;;;;6.03;4.53;;;16.10;96.40;;;;;;4986879;28;20245;-70
2023/05/12 04:12:16;;;;;;;5.27;4.03;;;16.10;96.50;;;;;;4987231;28;20292;-70
2023/05/12 04:14:42;;;;;;;4.60;4.20;;;16.10;96.60;;;;;;4987090;28;20206;-70
2023/05/12 04:17:09;;;;;;;6.93;3.93;;;16.20;96.70;;;;;;4982653;28;20329;-70
2023/05/12 04:19:38;;;;;;;8.53;4.60;;;16.20;96.80;;;;;;4986421;28;20637;-70
2023/05/12 04:22:05;;;;;;;6.53;4.07;;;16.20;96.70;;;;;;4986591;28;20325;-70
2023/05/12 04:24:32;;;;;;;4.57;3.77;;;16.20;96.70;;;;;;4986929;28;20244;-70
2023/05/12 04:26:59;;;;;;;5.93;4.33;;;16.20;96.80;;;;;;4986600;28;20317;-70
2023/05/12 04:29:26;;;;;;;101.97;9.20;;;16.20;96.80;;;;;;4986662;28;20230;-70
2023/05/12 04:31:55;;;;;;;20.90;5.13;;;16.20;97.20;;;;;;4983244;28;20225;-70
2023/05/12 04:34:22;;;;;;;5.80;4.07;;;16.20;96.80;;;;;;4986818;28;20213;-70
2023/05/12 04:36:50;;;;;;;13.77;4.83;;;16.20;96.90;;;;;;4986573;28;20233;-69
2023/05/12 04:39:17;;;;;;;12.57;4.67;;;16.20;96.90;;;;;;4986397;28;20591;-70
2023/05/12 04:41:44;;;;;;;4.37;3.87;;;16.10;97.00;;;;;;4986371;28;20312;-69
2023/05/12 04:44:11;;;;;;;6.73;4.03;;;16.10;97.00;;;;;;4985908;28;20736;-70
2023/05/12 04:46:38;;;;;;;6.33;4.47;;;16.10;97.10;;;;;;4986463;28;20237;-70
2023/05/12 04:49:04;;;;;;;7.77;4.37;;;16.00;97.10;;;;;;4986002;28;20230;-70
2023/05/12 04:51:31;;;;;;;7.43;3.90;;;16.00;97.20;;;;;;4986026;28;20210;-70
2023/05/12 04:54:00;;;;;;;4.60;4.20;;;16.00;97.20;;;;;;4985423;28;20202;-70
2023/05/12 04:56:27;;;;;;;4.73;3.80;;;15.90;97.10;;;;;;4985592;28;20244;-70
2023/05/12 04:58:53;;;;;;;8.40;4.10;;;16.00;97.30;;;;;;4985890;28;20233;-70
2023/05/12 05:01:20;;;;;;;10.93;3.93;;;16.00;97.50;;;;;;4985228;28;20214;-70
2023/05/12 05:03:47;;;;;;;7.10;3.87;;;16.10;97.60;;;;;;4986003;28;20211;-70
2023/05/12 05:06:14;;;;;;;6.73;3.93;;;16.10;97.50;;;;;;4985730;28;20220;-70
2023/05/12 05:08:41;;;;;;;6.27;4.00;;;16.10;97.40;;;;;;4985778;28;20206;-70
2023/05/12 05:11:09;;;;;;;4.63;4.00;;;16.20;97.60;;;;;;4983853;28;20240;-69
2023/05/12 05:13:36;;;;;;;13.23;5.00;;;16.20;97.90;;;;;;4985736;28;20220;-70
2023/05/12 05:16:03;;;;;;;7.37;4.57;;;16.20;97.70;;;;;;4985633;28;20216;-70
2023/05/12 05:18:30;;;;;;;7.93;3.97;;;16.20;97.80;;;;;;4986157;28;20214;-70
2023/05/12 05:20:57;;;;;;;16.73;5.43;;;16.30;97.90;;;;;;4986185;28;20213;-70
2023/05/12 05:23:24;;;;;;;40.73;6.00;;;16.30;97.90;;;;;;4986195;28;20238;-69
2023/05/12 05:25:51;;;;;;;9.90;4.37;;;16.30;98.20;;;;;;4985926;28;20206;-70
2023/05/12 05:28:19;;;;;;;11.00;4.67;;;16.40;97.90;;;;;;4986027;28;20301;-70
2023/05/12 05:30:46;;;;;;;5.20;4.03;;;16.40;97.90;;;;;;4986227;28;20236;-70
2023/05/12 05:33:13;;;;;;;7.07;3.77;;;16.50;98.00;;;;;;4985767;28;20301;-70
2023/05/12 05:35:40;;;;;;;5.70;4.07;;;16.50;98.00;;;;;;4985752;28;20216;-70
2023/05/12 05:38:07;;;;;;;5.43;4.33;;;16.50;98.10;;;;;;4985887;28;20677;-70
2023/05/12 05:40:34;;;;;;;7.73;4.20;;;16.60;97.70;;;;;;4985818;28;20245;-70
2023/05/12 05:43:01;;;;;;;5.00;4.10;;;16.60;97.10;;;;;;4985451;28;20210;-70
2023/05/12 05:45:29;;;;;;;4.30;3.73;;;16.50;97.00;;;;;;4985521;28;20299;-70
2023/05/12 05:47:56;;;;;;;32.30;5.90;;;16.50;96.90;;;;;;4985190;28;20237;-70
2023/05/12 05:50:23;;;;;;;9.53;3.97;;;16.60;97.10;;;;;;4985221;28;20316;-69
2023/05/12 05:52:50;;;;;;;6.03;4.10;;;16.60;96.90;;;;;;4988746;28;20277;-69
2023/05/12 05:55:17;;;;;;;8.87;4.33;;;16.70;97.00;;;;;;4988958;28;20810;-69
2023/05/12 05:57:44;;;;;;;7.47;3.80;;;16.70;96.80;;;;;;4989787;28;20568;-70
2023/05/12 06:00:13;;;;;;;5.63;3.73;;;16.70;97.10;;;;;;4989243;28;20214;-70
2023/05/12 06:02:41;;;;;;;4.80;3.87;;;16.80;96.70;;;;;;4989778;28;20272;-70
2023/05/12 06:05:09;;;;;;;5.87;3.93;;;16.80;96.50;;;;;;4989484;28;20306;-69
2023/05/12 06:07:36;;;;;;;6.43;4.07;;;16.90;96.40;;;;;;4989645;28;20704;-70
2023/05/12 06:10:03;;;;;;;9.03;4.30;;;16.90;96.40;;;;;;4988833;28;21083;-69
2023/05/12 06:12:30;;;;;;;7.73;4.20;;;17.00;96.30;;;;;;4989624;28;20249;-69
2023/05/12 06:14:57;;;;;;;10.00;4.07;;;17.00;96.20;;;;;;4989294;28;20423;-69
2023/05/12 06:17:24;;;;;;;13.10;4.00;;;17.00;96.10;;;;;;4989311;28;20301;-69
2023/05/12 06:19:52;;;;;;;6.40;3.53;;;17.00;96.20;;;;;;4989363;28;20316;-70
2023/05/12 06:22:20;;;;;;;7.73;4.20;;;17.10;96.30;;;;;;4989093;28;20214;-69
2023/05/12 06:24:46;;;;;;;9.97;4.03;;;17.20;96.30;;;;;;4988456;28;20225;-69
2023/05/12 06:27:13;;;;;;;11.03;4.47;;;17.20;96.10;;;;;;4988132;28;20242;-69
2023/05/12 06:29:40;;;;;;;8.27;4.10;;;17.20;96.20;;;;;;4988774;28;20218;-69
2023/05/12 06:32:08;;;;;;;7.67;4.00;;;17.30;96.20;;;;;;4988803;28;20309;-70
2023/05/12 06:34:34;;;;;;;6.03;3.80;;;17.30;96.10;;;;;;4988841;28;20740;-70
2023/05/12 06:37:03;;;;;;;4.57;3.50;;;17.40;95.80;;;;;;4988681;28;20218;-70
2023/05/12 06:39:29;;;;;;;5.07;3.53;;;17.40;95.60;;;;;;4988990;28;20206;-70
2023/05/12 06:41:56;;;;;;;9.03;3.80;;;17.50;95.70;;;;;;4989200;28;20309;-70
2023/05/12 06:44:23;;;;;;;4.87;3.97;;;17.50;95.50;;;;;;4989133;28;20216;-70
2023/05/12 06:46:50;;;;;;;6.00;3.87;;;17.60;95.80;;;;;;4989006;28;20329;-70
2023/05/12 06:49:17;;;;;;;6.33;3.70;;;17.60;96.00;;;;;;4989630;28;20298;-70
2023/05/12 06:51:44;;;;;;;5.07;3.70;;;17.60;96.10;;;;;;4989647;28;20230;-70
2023/05/12 06:54:12;;;;;;;6.23;3.90;;;17.70;96.10;;;;;;4988990;28;20206;-70
2023/05/12 06:56:39;;;;;;;5.30;3.57;;;17.70;96.00;;;;;;4988794;28;20328;-70
2023/05/12 06:59:06;;;;;;;5.87;3.90;;;17.80;96.00;;;;;;4988789;28;20212;-70
2023/05/12 07:01:33;;;;;;;10.80;3.50;;;17.80;96.10;;;;;;4988977;28;20217;-70
2023/05/12 07:04:00;;;;;;;4.63;3.80;;;17.90;95.10;;;;;;4987215;28;20314;-70
2023/05/12 07:06:27;;;;;;;6.63;3.83;;;17.90;95.20;;;;;;4987997;28;20216;-70
2023/05/12 07:08:54;;;;;;;8.47;3.53;;;17.90;95.10;;;;;;4987797;28;20300;-70
2023/05/12 07:11:23;;;;;;;3.97;3.57;;;18.00;95.30;;;;;;4987684;28;20324;-70
2023/05/12 07:13:51;;;;;;;4.33;3.50;;;18.10;94.90;;;;;;4988121;28;20210;-70
2023/05/12 07:16:19;;;;;;;4.93;3.63;;;18.10;95.20;;;;;;4987801;28;20300;-70
2023/05/12 07:18:46;;;;;;;3.67;3.37;;;18.10;95.20;;;;;;4987982;28;20696;-70
2023/05/12 07:21:13;;;;;;;5.70;3.47;;;18.10;95.30;;;;;;4984694;28;20317;-70
2023/05/12 07:23:40;;;;;;;7.80;3.77;;;18.20;95.30;;;;;;4988412;28;20305;-71
2023/05/12 07:26:08;;;;;;;6.23;3.53;;;18.30;95.40;;;;;;4988019;28;20831;-70
2023/05/12 07:28:36;;;;;;;4.33;3.67;;;18.30;95.00;;;;;;4988276;28;20277;-70
2023/05/12 07:31:04;;;;;;;10.60;3.63;;;18.30;94.00;;;;;;4988356;28;20238;-70
2023/05/12 07:33:31;;;;;;;10.33;3.57;;;18.40;94.10;;;;;;4988194;28;20237;-71
2023/05/12 07:35:57;;;;;;;4.90;3.40;;;18.40;93.90;;;;;;4988001;28;20686;-71
2023/05/12 07:38:24;;;;;;;6.90;3.17;;;18.40;93.90;;;;;;4987926;28;20293;-70
2023/05/12 07:40:51;;;;;;;4.17;3.23;;;18.50;93.70;;;;;;4987533;28;20210;-71
2023/05/12 07:43:18;;;;;;;9.93;3.37;;;18.50;93.00;;;;;;4987582;28;20324;-71
2023/05/12 07:45:47;;;;;;;7.83;3.40;;;18.60;93.30;;;;;;4987598;28;20221;-71
2023/05/12 07:48:14;;;;;;;6.20;3.30;;;18.70;93.40;;;;;;4987445;28;20262;-71
2023/05/12 07:50:41;;;;;;;16.50;3.97;;;18.60;93.10;;;;;;4987067;28;21265;-70
2023/05/12 07:53:08;;;;;;;5.53;3.30;;;18.70;93.20;;;;;;4987620;28;20214;-70
2023/05/12 07:55:35;;;;;;;6.73;3.13;;;18.70;93.20;;;;;;4987471;28;20325;-70
2023/05/12 07:58:02;;;;;;;4.80;3.00;;;18.80;93.20;;;;;;4987590;28;20218;-71
2023/05/12 08:00:28;;;;;;;9.80;3.53;;;18.80;93.20;;;;;;4987907;28;20293;-70
2023/05/12 08:02:57;;;;;;;4.13;3.17;;;18.90;92.80;;;;;;4987924;28;20304;-71
2023/05/12 08:05:24;;;;;;;104.97;10.87;;;18.90;92.60;;;;;;4988200;28;20289;-71
2023/05/12 08:07:51;;;;;;;3.33;2.80;;;19.00;92.90;;;;;;4987923;28;20293;-72
2023/05/12 08:10:18;;;;;;;6.40;3.33;;;19.00;92.80;;;;;;4987470;28;20206;-71
2023/05/12 08:12:45;;;;;;;8.10;3.30;;;19.00;91.60;;;;;;4987620;28;20214;-70
2023/05/12 08:15:12;;;;;;;4.83;2.80;;;19.20;92.30;;;;;;4987282;28;20321;-70
2023/05/12 08:17:39;;;;;;;26.17;4.63;;;19.20;91.70;;;;;;4983583;28;20261;-71
2023/05/12 08:20:09;;;;;;;4.70;2.87;;;19.30;90.60;;;;;;4986799;28;20652;-72
2023/05/12 08:22:36;;;;;;;4.17;2.70;;;19.40;91.00;;;;;;4987413;28;20229;-70
2023/05/12 08:25:03;;;;;;;2.63;2.40;;;19.40;90.20;;;;;;4986368;28;20221;-70
2023/05/12 08:27:30;;;;;;;4.27;2.87;;;19.40;88.70;;;;;;4986680;28;20210;-71
2023/05/12 08:29:57;;;;;;;3.03;2.70;;;19.40;89.00;;;;;;4986256;28;20214;-70
2023/05/12 08:32:24;;;;;;;2.90;2.53;;;19.50;88.80;;;;;;4986346;28;20260;-71
2023/05/12 08:34:51;;;;;;;7.60;2.97;;;19.50;90.30;;;;;;4986736;28;20304;-70
2023/05/12 08:37:19;;;;;;;6.17;2.93;;;19.50;91.20;;;;;;4986576;28;20268;-70
2023/05/12 08:39:46;;;;;;;12.17;3.00;;;19.60;89.00;;;;;;4986063;28;20687;-71
2023/05/12 08:42:26;;;;;;;3.93;2.77;;;19.60;88.30;;;;;;4986565;28;20225;-70
2023/05/12 08:44:54;;;;;;;4.47;2.80;;;19.60;87.70;;;;;;4986578;28;20308;-71
2023/05/12 08:47:23;;;;;;;4.35;2.42;;;19.70;89.20;;;;;;4986605;28;20336;-70
2023/05/12 08:49:58;;;;;;;3.70;2.73;;;19.70;87.20;;;;;;4986617;28;20285;-71
2023/05/12 08:52:27;;;;;;;4.77;2.50;;;19.70;86.80;;;;;;4986548;28;20236;-70
2023/05/12 08:54:55;;;;;;;5.07;2.80;;;19.80;86.80;;;;;;4986298;28;20300;-71
2023/05/12 08:57:23;;;;;;;7.82;2.80;;;19.80;88.60;;;;;;4986406;28;20195;-70
2023/05/12 08:59:52;;;;;;;4.82;2.67;;;19.90;86.80;;;;;;4986079;28;20214;-70
2023/05/12 09:02:21;;;;;;;20.08;3.50;;;19.90;88.10;;;;;;4986034;28;20212;-70
2023/05/12 09:04:48;;;;;;;39.90;4.53;;;20.00;87.00;;;;;;4986178;28;20210;-70
2023/05/12 09:07:15;;;;;;;6.18;3.05;;;20.10;88.10;;;;;;4985936;28;20210;-70
2023/05/12 09:09:46;;;;;;;3.60;2.75;;;20.20;85.30;;;;;;4985564;28;20209;-70
2023/05/12 09:12:18;;;;;;;3.65;2.30;;;20.30;85.10;;;;;;4985767;28;20719;-70
2023/05/12 09:14:45;;;;;;;8.27;2.70;;;20.30;84.20;;;;;;4985708;28;20301;-70
2023/05/12 09:17:12;;;;;;;5.63;2.40;;;20.30;84.20;;;;;;4985938;28;20230;-71
2023/05/12 09:19:39;;;;;;;3.85;2.88;;;20.30;85.30;;;;;;4986111;28;20269;-70
2023/05/12 09:22:08;;;;;;;3.47;2.85;;;20.30;83.60;;;;;;4985968;28;20296;-71
2023/05/12 09:24:36;;;;;;;5.72;2.60;;;20.40;86.20;;;;;;4985782;28;20206;-71
2023/05/12 09:27:05;;;;;;;4.43;2.85;;;20.50;84.50;;;;;;4985020;28;20310;-70
2023/05/12 09:29:33;;;;;;;3.65;2.65;;;20.50;83.70;;;;;;4969307;28;20219;-70
2023/05/12 09:32:02;;;;;;;3.53;2.40;;;20.60;82.60;;;;;;4969440;28;20721;-71
2023/05/12 09:34:30;;;;;;;6.57;2.80;;;20.70;83.00;;;;;;4985914;28;20320;-70
2023/05/12 09:36:57;;;;;;;5.97;2.47;;;20.80;84.20;;;;;;4985770;28;20301;-70
2023/05/12 09:39:24;;;;;;;11.55;3.28;;;20.70;84.70;;;;;;4985284;28;20206;-70
2023/05/12 09:41:52;;;;;;;4.15;2.55;;;20.70;82.70;;;;;;4985351;28;20210;-71
2023/05/12 09:44:21;;;;;;;3.25;2.42;;;20.90;83.40;;;;;;4985638;28;20210;-71
2023/05/12 09:46:48;;;;;;;5.00;2.30;;;20.90;82.30;;;;;;4985444;28;20325;-71
2023/05/12 09:49:19;;;;;;;2.83;2.28;;;21.00;82.40;;;;;;4985725;28;20297;-71
2023/05/12 09:51:46;;;;;;;8.80;3.10;;;21.00;81.40;;;;;;4985613;28;20325;-71
2023/05/12 09:54:25;;;;;;;2.50;2.35;;;21.00;83.60;;;;;;4985069;28;20210;-71
2023/05/12 09:56:55;;;;;;;5.63;2.65;;;21.10;84.10;;;;;;4985056;28;20246;-71
2023/05/12 09:59:27;;;;;;;2.47;2.13;;;21.20;81.30;;;;;;4985193;28;20312;-71
2023/05/12 10:01:57;;;;;;;5.53;2.42;;;21.30;79.80;;;;;;4984989;28;20687;-71
2023/05/12 10:04:24;;;;;;;4.32;2.33;;;21.30;80.00;;;;;;4985492;28;20569;-71
2023/05/12 10:06:52;;;;;;;52.50;5.32;;;21.40;79.70;;;;;;4985136;28;20241;-71
2023/05/12 10:09:23;;;;;;;2.83;2.33;;;21.40;78.10;;;;;;4981752;28;20215;-70
2023/05/12 10:11:51;;;;;;;2.47;2.28;;;21.50;80.40;;;;;;4985075;28;20712;-71
2023/05/12 10:14:18;;;;;;;21.67;4.20;;;21.50;80.00;;;;;;4985183;28;20691;-70
2023/05/12 10:16:47;;;;;;;6.57;2.50;;;21.50;79.80;;;;;;4985243;28;20452;-70
2023/05/12 10:19:15;;;;;;;3.03;2.83;;;21.50;81.30;;;;;;4985177;28;20206;-70
2023/05/12 10:21:44;;;;;;;3.10;2.28;;;21.60;81.60;;;;;;4985533;28;20221;-70
2023/05/12 10:24:13;;;;;;;2.50;2.30;;;21.60;80.70;;;;;;4985114;28;20221;-71
2023/05/12 10:26:42;;;;;;;7.03;2.75;;;21.60;79.40;;;;;;4985870;28;20206;-71
2023/05/12 10:29:10;;;;;;;2.67;2.47;;;21.70;82.60;;;;;;4982552;28;20634;-71
2023/05/12 10:31:38;;;;;;;4.55;2.58;;;21.80;80.80;;;;;;4985542;28;20426;-71
2023/05/12 10:34:06;;;;;;;5.35;2.72;;;21.90;82.60;;;;;;4985756;28;20202;-70
2023/05/12 10:36:43;;;;;;;5.05;2.53;;;21.90;82.70;;;;;;4985645;28;20210;-71
2023/05/12 10:39:13;;;;;;;4.25;2.30;;;22.00;82.50;;;;;;4988436;28;20198;-70
2023/05/12 10:41:40;;;;;;;10.68;2.95;;;22.20;82.80;;;;;;4988598;28;20704;-70
2023/05/12 10:44:07;;;;;;;3.78;2.30;;;22.30;82.00;;;;;;4988746;28;20214;-70
2023/05/12 10:46:34;;;;;;;6.32;2.50;;;22.40;83.50;;;;;;4988672;28;20230;-70
2023/05/12 10:49:06;;;;;;;5.05;2.80;;;22.50;81.30;;;;;;4988819;28;20312;-70
2023/05/12 10:51:47;;;;;;;2.60;2.40;;;22.60;81.30;;;;;;4969022;28;20719;-70
2023/05/12 10:54:21;;;;;;;3.25;2.55;;;22.60;81.70;;;;;;4969058;28;20194;-70
2023/05/12 10:56:48;;;;;;;14.77;3.67;;;22.80;81.30;;;;;;4969107;28;20766;-70
2023/05/12 10:59:17;;;;;;;3.40;2.70;;;22.90;80.80;;;;;;4982965;28;20718;-70
2023/05/12 11:02:00;;;;;;;2.60;2.40;;;22.80;80.10;;;;;;4988122;28;20669;-70
2023/05/12 11:04:41;;;;;;;4.63;2.30;;;22.70;80.10;;;;;;4988566;28;20282;-70
2023/05/12 11:07:11;;;;;;;2.75;2.53;;;22.80;82.20;;;;;;4987890;28;20222;-70
2023/05/12 11:09:39;;;;;;;4.20;2.85;;;22.90;82.60;;;;;;4988263;28;20213;-69
2023/05/12 11:12:07;;;;;;;6.72;2.83;;;23.00;81.30;;;;;;4987726;28;21037;-70
2023/05/12 11:14:34;;;;;;;4.32;2.90;;;23.10;81.60;;;;;;4988294;28;20634;-69
2023/05/12 11:17:02;;;;;;;4.90;2.90;;;23.00;80.00;;;;;;4987794;28;20206;-70
2023/05/12 11:19:28;;;;;;;3.58;2.60;;;23.00;80.70;;;;;;4987908;28;20292;-70
2023/05/12 11:21:55;;;;;;;4.30;2.63;;;23.10;80.70;;;;;;4987667;28;20300;-70
2023/05/12 11:24:24;;;;;;;2.60;2.40;;;23.30;81.50;;;;;;4987535;28;20582;-70
2023/05/12 11:26:51;;;;;;;5.47;2.63;;;23.50;82.00;;;;;;4987743;28;20309;-70
2023/05/12 11:29:19;;;;;;;3.47;2.80;;;23.70;81.20;;;;;;4987487;28;20214;-70
2023/05/12 11:31:50;;;;;;;10.65;3.05;;;23.80;79.70;;;;;;4987677;28;20230;-70
2023/05/12 11:34:21;;;;;;;8.77;2.90;;;23.70;78.10;;;;;;4987628;28;20210;-70
2023/05/12 11:36:50;;;;;;;36.55;6.03;;;23.70;77.70;;;;;;4987610;28;20210;-70
2023/05/12 11:39:19;;;;;;;3.20;2.80;;;23.70;79.20;;;;;;4987837;28;20317;-70
2023/05/12 11:41:48;;;;;;;66.30;7.18;;;23.90;79.20;;;;;;4987743;28;20218;-70
2023/05/12 11:44:16;;;;;;;6.40;2.80;;;24.00;78.00;;;;;;4987497;28;20628;-69
2023/05/12 11:46:54;;;;;;;3.38;2.22;;;24.20;79.70;;;;;;4987800;28;20254;-70
2023/05/12 11:49:21;;;;;;;17.83;4.45;;;24.20;78.10;;;;;;4987066;28;20297;-70
2023/05/12 11:51:50;;;;;;;4.05;2.50;;;24.10;78.10;;;;;;4987488;28;20240;-70
2023/05/12 11:54:17;;;;;;;3.20;2.90;;;24.20;76.90;;;;;;4987348;28;21029;-71
2023/05/12 11:56:49;;;;;;;3.38;2.40;;;24.40;78.90;;;;;;4986941;28;20356;-69
2023/05/12 11:59:27;;;;;;;5.35;2.60;;;24.40;77.90;;;;;;4987519;28;20306;-69
2023/05/12 12:01:54;;;;;;;8.70;2.85;;;24.30;76.40;;;;;;4986801;28;20214;-69
2023/05/12 12:04:32;;;;;;;3.58;2.75;;;24.40;76.50;;;;;;4986991;28;20286;-69
2023/05/12 12:07:00;;;;;;;3.00;2.58;;;24.50;76.80;;;;;;4986735;28;20199;-70
2023/05/12 12:09:32;;;;;;;4.07;2.72;;;24.60;77.30;;;;;;4987011;28;20273;-70
2023/05/12 12:12:00;;;;;;;3.35;3.08;;;24.80;75.30;;;;;;4986641;28;20230;-69
2023/05/12 12:14:27;;;;;;;7.43;2.63;;;25.00;78.70;;;;;;4987270;28;20210;-70
2023/05/12 12:16:56;;;;;;;3.60;2.20;;;25.10;76.40;;;;;;4986319;28;20784;-70
2023/05/12 12:19:23;;;;;;;4.45;2.55;;;25.20;75.30;;;;;;4987011;28;20582;-70
2023/05/12 12:21:50;;;;;;;3.45;2.60;;;25.30;74.60;;;;;;4986975;28;20210;-70
2023/05/12 12:24:17;;;;;;;2.53;2.40;;;25.40;74.70;;;;;;4986974;28;20317;-69
2023/05/12 12:26:44;;;;;;;4.15;2.65;;;25.50;73.90;;;;;;4986532;28;20217;-69
2023/05/12 12:29:12;;;;;;;70.97;6.93;;;25.60;74.60;;;;;;4986684;28;20214;-69
2023/05/12 12:31:40;;;;;;;8.43;3.20;;;25.70;72.60;;;;;;4986736;28;20214;-69
2023/05/12 12:34:07;;;;;;;4.95;2.33;;;25.70;72.10;;;;;;4986731;28;20625;-70
2023/05/12 12:36:34;;;;;;;3.20;2.47;;;25.90;72.10;;;;;;4986823;28;20233;-70
2023/05/12 12:39:01;;;;;;;8.23;3.17;;;26.00;72.70;;;;;;4986460;28;20698;-69
2023/05/12 12:41:28;;;;;;;3.60;2.70;;;26.10;74.80;;;;;;4986760;28;20217;-69
2023/05/12 12:43:55;;;;;;;9.85;3.35;;;26.20;74.20;;;;;;4986616;28;20564;-69
2023/05/12 12:46:23;;;;;;;3.53;2.78;;;26.40;76.10;;;;;;4986754;28;20238;-69
2023/05/12 12:48:50;;;;;;;3.33;2.63;;;26.50;72.60;;;;;;4986884;28;20210;-69